Time;durP1;ratioP1;P1;durP2;ratioP2;P2;SDS_P1;SDS_P2;PMS_P1;PMS_P2;Temp;Humidity;BMP_temperature;BMP_pressure;BME280_temperature;BME280_humidity;BME280_pressure;Samples;Min_cycle;Max_cycle;Signal;HPM_P1;HPM_P2
2022/04/17 00:00:48;;;;;;;17.50;8.60;;;;;;;-0.25;78.27;100770.23;103554;1300;24215;-26
2022/04/17 00:03:17;;;;;;;27.40;9.40;;;;;;;-0.25;78.05;100767.61;103554;1301;24254;-29
2022/04/17 00:05:46;;;;;;;20.40;9.70;;;;;;;-0.27;77.67;100771.28;103582;1301;24229;-28
2022/04/17 00:08:15;;;;;;;26.40;8.00;;;;;;;-0.31;78.17;100770.64;103589;1300;24244;-25
2022/04/17 00:10:46;;;;;;;16.80;8.60;;;;;;;-0.34;78.34;100767.50;103606;1302;23755;-28
2022/04/17 00:13:15;;;;;;;18.60;10.20;;;;;;;-0.34;77.99;100764.65;103518;1302;25283;-27
2022/04/17 00:15:44;;;;;;;29.90;11.00;;;;;;;-0.30;78.61;100761.59;103612;1302;22635;-26
2022/04/17 00:18:13;;;;;;;21.70;9.00;;;;;;;-0.32;78.90;100761.35;103616;1300;22521;-29
2022/04/17 00:20:42;;;;;;;22.60;8.50;;;;;;;-0.34;78.95;100753.56;103588;1300;22712;-29
2022/04/17 00:23:11;;;;;;;18.00;8.80;;;;;;;-0.38;79.02;100749.41;103577;1300;22632;-29
2022/04/17 00:25:40;;;;;;;24.20;8.90;;;;;;;-0.41;79.12;100747.32;103569;1302;22503;-28
2022/04/17 00:28:10;;;;;;;22.80;8.60;;;;;;;-0.43;79.12;100745.13;103598;1301;24999;-28
2022/04/17 00:30:39;;;;;;;17.50;9.20;;;;;;;-0.50;79.68;100746.45;103560;1300;23752;-30
2022/04/17 00:33:08;;;;;;;17.30;7.20;;;;;;;-0.57;80.26;100743.02;103595;1302;23747;-28
2022/04/17 00:35:38;;;;;;;22.00;9.70;;;;;;;-0.62;80.67;100738.06;103620;1301;25089;-28
2022/04/17 00:38:07;;;;;;;30.20;10.90;;;;;;;-0.68;81.15;100736.29;103489;1300;23599;-28
2022/04/17 00:40:36;;;;;;;23.00;8.80;;;;;;;-0.70;80.90;100731.66;103549;1300;23616;-26
2022/04/17 00:43:26;;;;;;;33.70;10.90;;;;;;;-0.72;81.31;100730.30;103560;1301;24302;-25
2022/04/17 00:45:56;;;;;;;23.00;9.30;;;;;;;-0.72;80.84;100729.80;103556;1302;25035;-28
2022/04/17 00:48:25;;;;;;;22.40;9.40;;;;;;;-0.73;81.35;100726.40;103570;1301;22950;-28
2022/04/17 00:50:56;;;;;;;29.90;9.00;;;;;;;-0.80;81.82;100726.81;103608;1300;25017;-29
2022/04/17 00:53:26;;;;;;;25.90;8.90;;;;;;;-0.89;82.66;100725.76;103568;1301;25331;-28
2022/04/17 00:55:55;;;;;;;19.90;9.60;;;;;;;-0.94;83.16;100729.89;103582;1300;23598;-25
2022/04/17 00:58:25;;;;;;;23.70;9.60;;;;;;;-0.98;83.00;100726.98;103553;1300;24192;-29
2022/04/17 01:00:54;;;;;;;16.60;8.10;;;;;;;-1.04;83.59;100727.34;103582;1300;24216;-26
2022/04/17 01:03:23;;;;;;;24.40;12.50;;;;;;;-1.05;83.27;100724.40;103664;1301;25944;-26
2022/04/17 01:05:52;;;;;;;24.60;10.20;;;;;;;-1.00;82.41;100727.77;103550;1300;23600;-28
2022/04/17 01:08:21;;;;;;;21.50;9.30;;;;;;;-0.95;82.19;100727.83;103593;1300;25126;-27
2022/04/17 01:10:50;;;;;;;22.60;10.20;;;;;;;-0.90;82.07;100725.64;103595;1300;22973;-25
2022/04/17 01:13:19;;;;;;;22.30;8.20;;;;;;;-0.84;81.37;100723.54;103571;1301;24304;-25
2022/04/17 01:15:48;;;;;;;25.70;10.10;;;;;;;-0.83;81.94;100722.60;103628;1302;24222;-28
2022/04/17 01:18:17;;;;;;;21.20;8.80;;;;;;;-0.82;81.45;100721.61;103540;1300;22958;-28
2022/04/17 01:20:46;;;;;;;17.10;7.70;;;;;;;-0.80;81.04;100719.55;103587;1302;23642;-29
2022/04/17 01:28:20;;;;;;;15.80;5.30;;;;;;;-0.98;83.57;100716.42;103541;1302;24329;-25
2022/04/17 01:30:53;;;;;;;19.20;8.80;;;;;;;-1.07;84.06;100720.44;103617;1302;24238;-25
2022/04/17 01:33:23;;;;;;;9.30;4.90;;;;;;;-1.13;84.36;100717.13;103578;1300;23960;-29
2022/04/17 01:35:52;;;;;;;11.90;5.20;;;;;;;-1.16;84.48;100717.48;103428;1300;24214;-30
2022/04/17 01:38:21;;;;;;;14.90;5.90;;;;;;;-1.22;84.67;100717.67;103481;1300;24248;-29
2022/04/17 01:40:49;;;;;;;16.40;3.40;;;;;;;-1.28;84.37;100714.46;103537;1302;23603;-28
2022/04/17 01:43:18;;;;;;;15.60;5.80;;;;;;;-1.33;84.63;100714.25;103501;1302;22516;-25
2022/04/17 01:45:47;;;;;;;13.00;4.30;;;;;;;-1.34;84.29;100713.98;103610;1300;23633;-26
2022/04/17 01:48:16;;;;;;;15.10;4.20;;;;;;;-1.34;83.47;100712.56;103557;1302;22501;-25
2022/04/17 01:50:45;;;;;;;19.30;5.80;;;;;;;-1.33;82.69;100713.72;103545;1301;24303;-29
2022/04/17 01:53:14;;;;;;;14.90;6.10;;;;;;;-1.34;81.20;100712.91;103498;1302;22503;-30
2022/04/17 01:55:43;;;;;;;10.70;5.10;;;;;;;-1.42;80.99;100711.92;103502;1300;24303;-29
2022/04/17 01:58:12;;;;;;;11.50;5.00;;;;;;;-1.43;81.11;100706.38;103533;1302;23607;-25
2022/04/17 02:00:41;;;;;;;16.60;5.70;;;;;;;-1.49;81.07;100706.20;103561;1301;23715;-28
2022/04/17 02:03:10;;;;;;;13.80;4.10;;;;;;;-1.53;81.52;100707.14;103603;1302;24213;-28
2022/04/17 02:05:39;;;;;;;13.30;4.40;;;;;;;-1.60;81.53;100704.54;103578;1300;24263;-26
2022/04/17 02:08:08;;;;;;;16.50;4.20;;;;;;;-1.61;81.60;100700.75;103550;1301;24356;-28
2022/04/17 02:10:37;;;;;;;16.90;5.80;;;;;;;-1.63;82.02;100700.66;103560;1300;24224;-25
2022/04/17 02:13:06;;;;;;;11.90;5.40;;;;;;;-1.62;81.68;100696.23;103595;1301;22501;-29
2022/04/17 02:15:35;;;;;;;5.70;3.30;;;;;;;-1.67;82.21;100695.28;103528;1300;23631;-25
2022/04/17 02:18:04;;;;;;;11.00;4.70;;;;;;;-1.72;84.07;100693.61;103488;1300;24254;-28
2022/04/17 02:20:32;;;;;;;9.70;4.30;;;;;;;-1.73;83.59;100697.35;103506;1300;23615;-28
2022/04/17 02:23:01;;;;;;;6.40;3.20;;;;;;;-1.75;83.85;100695.21;103548;1301;23941;-30
2022/04/17 02:25:30;;;;;;;8.90;4.30;;;;;;;-1.75;84.40;100693.64;103596;1300;24242;-24
2022/04/17 02:27:59;;;;;;;6.10;3.30;;;;;;;-1.73;85.24;100693.36;103595;1300;24220;-29
2022/04/17 02:30:28;;;;;;;8.30;4.10;;;;;;;-1.73;85.66;100689.98;103562;1300;24250;-29
2022/04/17 02:32:57;;;;;;;9.90;4.30;;;;;;;-1.76;85.88;100691.54;103532;1300;24280;-30
2022/04/17 02:35:26;;;;;;;6.90;3.10;;;;;;;-1.80;86.53;100690.77;103554;1300;22502;-30
2022/04/17 02:37:55;;;;;;;10.30;4.00;;;;;;;-1.84;86.98;100691.31;103530;1300;23650;-28
2022/04/17 02:40:24;;;;;;;7.60;3.70;;;;;;;-1.84;87.37;100688.17;103557;1300;24247;-27
2022/04/17 02:42:53;;;;;;;4.50;2.70;;;;;;;-1.85;88.35;100687.86;103545;1300;22498;-25
2022/04/17 02:45:22;;;;;;;11.10;4.40;;;;;;;-1.81;87.92;100683.98;103551;1300;24220;-29
2022/04/17 02:47:51;;;;;;;8.90;5.00;;;;;;;-1.81;84.34;100690.48;103569;1300;22622;-30
2022/04/17 02:50:22;;;;;;;7.90;2.90;;;;;;;-1.91;84.54;100688.70;103555;1300;24227;-30
2022/04/17 02:52:54;;;;;;;7.70;3.20;;;;;;;-1.94;85.72;100691.35;103742;1300;25235;-27
2022/04/17 02:55:23;;;;;;;9.30;4.20;;;;;;;-1.96;86.72;100691.08;103524;1301;23795;-28
2022/04/17 02:57:54;;;;;;;12.10;4.30;;;;;;;-2.03;86.31;100690.06;103563;1302;23599;-30
2022/04/17 03:00:24;;;;;;;10.30;4.00;;;;;;;-2.07;87.52;100695.59;103493;1300;24226;-25
2022/04/17 03:07:59;;;;;;;6.60;3.70;;;;;;;-2.15;87.41;100696.16;103356;1303;22508;-25
2022/04/17 03:10:28;;;;;;;11.60;5.80;;;;;;;-2.18;87.81;100698.80;103591;1300;24105;-28
2022/04/17 03:12:57;;;;;;;10.80;4.70;;;;;;;-2.16;87.45;100700.10;103509;1302;23598;-29
2022/04/17 03:15:26;;;;;;;4.50;3.10;;;;;;;-2.15;85.75;100703.73;103533;1300;23605;-28
2022/04/17 03:17:55;;;;;;;17.50;4.60;;;;;;;-2.17;85.64;100704.73;103577;1300;22524;-28
2022/04/17 03:20:26;;;;;;;10.70;4.80;;;;;;;-2.20;86.02;100703.82;103605;1300;25025;-28
2022/04/17 03:22:55;;;;;;;9.60;5.00;;;;;;;-2.18;85.47;100704.59;103572;1300;25016;-29
2022/04/17 03:25:24;;;;;;;10.20;4.80;;;;;;;-2.22;85.69;100706.58;103502;1300;24485;-25
2022/04/17 03:27:53;;;;;;;12.90;5.40;;;;;;;-2.27;87.77;100709.64;103545;1300;23621;-28
2022/04/17 03:30:22;;;;;;;9.80;4.00;;;;;;;-2.32;89.60;100710.97;103567;1300;23799;-26
2022/04/17 03:32:51;;;;;;;16.80;6.00;;;;;;;-2.32;89.45;100711.66;103585;1300;24300;-25
2022/04/17 03:35:20;;;;;;;10.70;5.40;;;;;;;-2.34;90.19;100711.96;103630;1300;23599;-26
2022/04/17 03:37:49;;;;;;;9.60;4.70;;;;;;;-2.34;89.62;100713.55;103581;1300;24296;-30
2022/04/17 03:40:18;;;;;;;9.30;4.10;;;;;;;-2.37;90.32;100714.21;103527;1300;24218;-25
2022/04/17 03:42:47;;;;;;;15.90;5.30;;;;;;;-2.39;90.70;100715.89;103549;1300;22502;-29
2022/04/17 03:45:17;;;;;;;12.80;5.30;;;;;;;-2.41;90.76;100714.61;103575;1300;25000;-29
2022/04/17 03:47:46;;;;;;;11.80;5.90;;;;;;;-2.43;91.16;100714.86;103567;1300;23821;-27
2022/04/17 03:50:16;;;;;;;11.40;5.80;;;;;;;-2.39;91.69;100719.56;103386;1300;22495;-30
2022/04/17 03:52:47;;;;;;;13.70;6.40;;;;;;;-2.35;91.18;100722.36;103549;1299;23926;-28
2022/04/17 03:55:16;;;;;;;14.30;6.00;;;;;;;-2.36;90.82;100724.31;103556;1300;23808;-28
2022/04/17 03:57:45;;;;;;;9.20;5.30;;;;;;;-2.35;88.95;100723.39;103563;1300;24971;-28
2022/04/17 04:00:15;;;;;;;10.00;5.30;;;;;;;-2.33;88.91;100722.92;103495;1302;23920;-28
2022/04/17 04:02:44;;;;;;;12.10;5.80;;;;;;;-2.33;88.12;100723.83;103596;1300;24218;-25
2022/04/17 04:05:13;;;;;;;9.70;5.10;;;;;;;-2.30;88.73;100720.50;103636;1300;23899;-25
2022/04/17 04:07:42;;;;;;;11.60;5.10;;;;;;;-2.28;88.02;100720.75;103554;1300;24312;-26
2022/04/17 04:10:11;;;;;;;8.30;5.60;;;;;;;-2.25;87.73;100720.74;103534;1300;22513;-25
2022/04/17 04:12:40;;;;;;;16.70;8.30;;;;;;;-2.19;86.89;100719.55;103331;1300;352889;-26
2022/04/17 04:15:10;;;;;;;14.90;5.70;;;;;;;-2.22;86.36;100717.98;103506;1300;23826;-26
2022/04/17 04:17:39;;;;;;;9.00;5.50;;;;;;;-2.23;86.07;100721.73;103617;1300;22505;-26
2022/04/17 04:20:09;;;;;;;7.30;4.80;;;;;;;-2.07;85.90;100717.84;103578;1300;24248;-26
2022/04/17 04:22:37;;;;;;;10.60;6.40;;;;;;;-1.81;86.81;100717.69;103535;1300;23645;-30
2022/04/17 04:25:07;;;;;;;21.40;8.70;;;;;;;-1.50;87.42;100716.95;103504;1300;24217;-25
2022/04/17 04:30:09;;;;;;;16.60;8.00;;;;;;;-0.88;86.57;100714.42;103567;1300;25156;-29
2022/04/17 04:32:38;;;;;;;14.20;7.20;;;;;;;-0.59;85.63;100717.81;103575;1299;22639;-30
2022/04/17 04:35:08;;;;;;;14.10;7.40;;;;;;;-0.38;84.69;100719.69;103556;1300;24288;-28
2022/04/17 04:37:37;;;;;;;14.60;6.30;;;;;;;-0.21;83.62;100718.09;103596;1300;24551;-29
2022/04/17 04:40:07;;;;;;;11.90;7.00;;;;;;;-0.06;82.64;100717.00;103591;1300;22506;-25
2022/04/17 04:42:36;;;;;;;16.40;8.00;;;;;;;0.07;81.08;100716.53;103521;1300;22516;-24
2022/04/17 04:47:37;;;;;;;15.40;7.80;;;;;;;0.62;80.05;100719.33;103505;1301;22515;-29
2022/04/17 04:50:07;;;;;;;20.70;9.40;;;;;;;0.81;78.41;100717.69;103514;1299;22793;-25
2022/04/17 04:52:37;;;;;;;17.10;9.70;;;;;;;0.97;77.38;100717.88;103536;1300;24364;-28
2022/04/17 04:55:06;;;;;;;18.10;8.10;;;;;;;1.14;76.92;100717.09;103566;1300;24224;-26
2022/04/17 04:57:36;;;;;;;24.30;9.50;;;;;;;1.40;76.67;100716.58;103657;1300;24299;-24
2022/04/17 05:00:06;;;;;;;16.70;9.60;;;;;;;1.49;75.60;100716.13;103553;1300;24241;-26
2022/04/17 05:02:35;;;;;;;14.10;9.30;;;;;;;1.62;75.98;100722.75;103582;1300;24273;-28
2022/04/17 05:05:05;;;;;;;15.80;9.30;;;;;;;1.82;75.21;100721.22;103582;1300;24219;-28
2022/04/17 05:07:34;;;;;;;18.50;11.60;;;;;;;1.91;74.36;100721.66;103552;1300;25335;-25
2022/04/17 05:10:05;;;;;;;17.40;10.60;;;;;;;2.04;74.93;100720.53;103607;1300;22653;-25
2022/04/17 05:12:34;;;;;;;19.80;10.70;;;;;;;2.21;74.81;100720.58;103572;1299;24430;-29
2022/04/17 05:15:03;;;;;;;17.90;10.60;;;;;;;2.40;74.97;100724.85;103558;1300;23618;-24
2022/04/17 05:17:32;;;;;;;15.70;9.00;;;;;;;2.49;73.73;100719.77;103549;1300;22505;-28
2022/04/17 05:20:01;;;;;;;19.30;11.50;;;;;;;2.57;73.83;100719.34;103666;1300;24420;-25
2022/04/17 05:22:31;;;;;;;23.00;11.70;;;;;;;2.50;73.03;100720.73;103582;1300;23812;-26
2022/04/17 05:25:00;;;;;;;18.40;9.90;;;;;;;2.42;73.29;100725.06;103558;1300;22514;-28
2022/04/17 05:27:29;;;;;;;18.20;8.80;;;;;;;2.52;73.66;100722.53;103555;1300;24236;-28
2022/04/17 05:29:58;;;;;;;16.30;10.30;;;;;;;2.66;73.41;100723.16;103521;1300;24214;-25
2022/04/17 05:32:27;;;;;;;13.10;9.10;;;;;;;2.60;73.15;100718.63;103581;1300;24298;-28
2022/04/17 05:34:56;;;;;;;18.70;10.00;;;;;;;2.64;73.06;100716.88;103597;1300;22531;-29
2022/04/17 05:37:27;;;;;;;12.60;6.90;;;;;;;2.83;73.13;100716.55;103583;1300;23647;-25
2022/04/17 05:39:56;;;;;;;17.60;11.30;;;;;;;2.88;72.20;100719.03;103528;1300;24014;-29
2022/04/17 05:42:25;;;;;;;15.90;9.30;;;;;;;3.05;72.66;100724.41;103549;1300;23936;-25
2022/04/17 05:44:54;;;;;;;16.30;9.30;;;;;;;3.23;71.46;100723.29;103525;1300;24241;-25
2022/04/17 05:47:23;;;;;;;21.20;10.00;;;;;;;3.31;70.49;100725.85;103582;1300;24315;-25
2022/04/17 05:49:52;;;;;;;26.90;9.70;;;;;;;3.56;72.55;100729.78;103590;1300;22513;-24
2022/04/17 05:52:21;;;;;;;17.50;7.40;;;;;;;3.87;71.27;100729.23;103427;1302;25073;-24
2022/04/17 05:54:50;;;;;;;17.10;8.20;;;;;;;3.87;69.12;100732.65;103509;1300;22735;-26
2022/04/17 05:57:19;;;;;;;11.40;8.00;;;;;;;3.87;69.84;100734.78;103507;1300;23749;-28
2022/04/17 05:59:48;;;;;;;13.10;6.50;;;;;;;3.77;68.88;100732.04;103554;1300;23794;-28
2022/04/17 06:02:17;;;;;;;14.30;8.20;;;;;;;3.71;69.07;100734.11;103586;1300;22504;-29
2022/04/17 06:04:47;;;;;;;16.30;9.50;;;;;;;3.65;69.30;100733.83;103593;1300;24300;-28
2022/04/17 06:07:25;;;;;;;15.70;8.80;;;;;;;3.75;69.58;100730.73;103565;1300;23637;-28
2022/04/17 06:09:55;;;;;;;25.70;9.50;;;;;;;3.83;68.61;100733.48;103443;1300;24302;-28
2022/04/17 06:12:23;;;;;;;11.90;8.20;;;;;;;3.77;69.33;100735.57;103621;1300;24374;-25
2022/04/17 06:14:52;;;;;;;11.80;7.80;;;;;;;4.21;70.26;100730.00;103499;1300;24430;-25
2022/04/17 06:17:21;;;;;;;12.30;7.10;;;;;;;4.26;67.71;100730.98;103532;1300;22501;-25
2022/04/17 06:19:50;;;;;;;10.20;7.20;;;;;;;4.25;67.28;100731.20;103575;1300;24344;-28
2022/04/17 06:22:20;;;;;;;9.80;6.60;;;;;;;4.12;67.70;100727.86;103523;1300;23593;-24
2022/04/17 06:24:49;;;;;;;7.80;4.60;;;;;;;4.11;67.82;100726.33;103559;1300;22635;-28
2022/04/17 06:27:18;;;;;;;10.40;6.00;;;;;;;4.15;68.18;100729.02;103531;1300;22772;-27
2022/04/17 06:29:48;;;;;;;9.40;5.60;;;;;;;4.08;67.36;100733.10;103546;1300;24247;-26
2022/04/17 06:32:17;;;;;;;10.50;5.90;;;;;;;3.91;68.15;100732.15;103581;1300;25110;-23
2022/04/17 06:34:46;;;;;;;13.70;6.50;;;;;;;4.06;68.20;100732.05;103532;1300;24224;-28
2022/04/17 06:37:14;;;;;;;9.80;5.30;;;;;;;4.24;67.60;100729.90;103569;1300;24215;-26
2022/04/17 06:39:43;;;;;;;11.40;6.80;;;;;;;4.49;67.58;100731.45;103623;1300;23590;-28
2022/04/17 06:42:12;;;;;;;8.80;4.60;;;;;;;4.57;67.29;100728.95;103552;1300;24212;-29
2022/04/17 06:44:41;;;;;;;11.00;6.10;;;;;;;4.21;66.66;100728.71;103584;1300;24098;-24
2022/04/17 06:47:10;;;;;;;10.90;5.90;;;;;;;4.20;67.38;100726.13;103552;1300;23960;-25
2022/04/17 06:49:39;;;;;;;7.10;4.70;;;;;;;4.11;67.44;100725.05;103577;1300;23274;-28
2022/04/17 06:52:08;;;;;;;6.60;4.70;;;;;;;4.14;66.94;100722.19;103541;1300;22490;-25
2022/04/17 06:54:37;;;;;;;14.90;5.50;;;;;;;4.18;67.57;100723.80;103559;1300;22810;-27
2022/04/17 06:57:06;;;;;;;7.50;5.00;;;;;;;4.38;66.94;100723.83;103642;1300;23751;-24
2022/04/17 06:59:35;;;;;;;7.80;5.10;;;;;;;4.53;67.19;100723.42;103540;1300;22759;-28
2022/04/17 07:02:04;;;;;;;8.60;5.00;;;;;;;4.91;67.02;100716.91;103498;1300;24303;-26
2022/04/17 07:04:33;;;;;;;12.70;5.60;;;;;;;5.35;66.08;100716.12;103584;1300;23613;-27
2022/04/17 07:07:02;;;;;;;15.10;4.40;;;;;;;5.61;65.51;100715.14;103535;1300;23759;-29
2022/04/17 07:09:31;;;;;;;8.20;4.60;;;;;;;5.96;65.02;100715.31;103568;1300;24175;-25
2022/04/17 07:12:00;;;;;;;7.00;4.40;;;;;;;5.96;64.17;100714.08;103537;1300;22622;-25
2022/04/17 07:14:30;;;;;;;8.90;4.10;;;;;;;5.92;63.83;100715.84;103537;1300;25120;-25
2022/04/17 07:16:59;;;;;;;6.80;4.30;;;;;;;6.10;64.39;100709.48;103518;1300;25153;-29
2022/04/17 07:19:28;;;;;;;8.50;3.10;;;;;;;6.25;63.21;100711.71;103555;1300;22912;-28
2022/04/17 07:21:56;;;;;;;6.20;4.20;;;;;;;6.21;62.40;100709.55;103565;1300;24976;-26
2022/04/17 07:24:26;;;;;;;5.50;3.10;;;;;;;6.62;62.02;100701.24;103510;1300;24974;-29
2022/04/17 07:26:56;;;;;;;4.80;3.70;;;;;;;6.93;60.16;100702.70;103607;1300;24195;-25
2022/04/17 07:29:26;;;;;;;6.80;3.60;;;;;;;6.63;59.28;100700.10;103518;1302;22526;-25
2022/04/17 07:31:55;;;;;;;6.50;3.80;;;;;;;6.71;59.36;100697.96;103540;1300;24312;-25
2022/04/17 07:34:24;;;;;;;4.20;2.70;;;;;;;6.79;59.24;100695.79;103570;1300;22882;-28
2022/04/17 07:36:54;;;;;;;2.80;1.80;;;;;;;6.99;58.23;100698.58;103575;1300;24736;-29
2022/04/17 07:39:23;;;;;;;5.80;2.70;;;;;;;6.78;56.74;100701.36;103592;1300;22505;-25
2022/04/17 07:41:53;;;;;;;5.20;2.10;;;;;;;6.81;57.12;100700.27;103509;1302;25216;-25
2022/04/17 07:44:25;;;;;;;5.50;2.50;;;;;;;6.93;56.71;100699.84;103515;1302;23862;-28
2022/04/17 07:46:54;;;;;;;4.50;1.90;;;;;;;7.11;57.13;100705.30;103657;1300;24228;-29
2022/04/17 07:49:26;;;;;;;2.40;1.50;;;;;;;6.98;55.37;100698.09;103572;1300;24218;-25
2022/04/17 07:51:55;;;;;;;2.60;1.70;;;;;;;7.38;54.96;100699.54;103609;1300;24241;-25
2022/04/17 07:54:24;;;;;;;1.70;0.80;;;;;;;7.30;53.49;100694.65;103431;1302;22768;-30
2022/04/17 07:56:53;;;;;;;3.60;1.60;;;;;;;7.06;54.09;100687.21;103491;1300;22507;-25
2022/04/17 07:59:24;;;;;;;3.80;2.60;;;;;;;7.26;55.46;100682.69;103498;1300;24010;-31
2022/04/17 08:02:01;;;;;;;7.10;2.30;;;;;;;7.70;55.27;100679.07;103563;1300;22896;-25
2022/04/17 08:04:30;;;;;;;4.90;3.00;;;;;;;8.26;55.89;100667.05;103568;1300;23751;-28
2022/04/17 08:06:59;;;;;;;8.40;2.80;;;;;;;8.67;55.40;100661.96;103420;1302;22619;-28
2022/04/17 08:09:29;;;;;;;3.30;2.10;;;;;;;8.64;53.68;100665.45;103556;1300;25252;-26
2022/04/17 08:11:59;;;;;;;3.10;1.90;;;;;;;8.74;53.31;100664.27;103602;1300;22503;-29
2022/04/17 08:14:28;;;;;;;4.30;3.40;;;;;;;8.90;53.09;100664.06;103562;1300;22733;-26
2022/04/17 08:16:57;;;;;;;4.50;3.10;;;;;;;9.21;52.38;100660.37;103487;1300;24195;-25
2022/04/17 08:19:26;;;;;;;10.70;3.40;;;;;;;9.13;52.51;100658.02;103533;1300;22518;-32
2022/04/17 08:21:55;;;;;;;5.70;3.80;;;;;;;9.04;52.74;100657.63;103533;1300;22504;-28
2022/04/17 08:24:24;;;;;;;4.30;3.10;;;;;;;9.54;53.00;100652.75;103620;1300;22788;-29
2022/04/17 08:26:54;;;;;;;4.30;3.40;;;;;;;9.99;52.49;100654.30;103582;1300;23596;-25
2022/04/17 08:29:23;;;;;;;3.60;2.40;;;;;;;10.20;51.36;100652.96;103505;1300;23611;-24
2022/04/17 08:31:52;;;;;;;6.50;3.10;;;;;;;10.32;50.49;100651.39;103580;1300;23806;-25
2022/04/17 08:34:21;;;;;;;6.90;3.70;;;;;;;10.23;50.17;100650.28;103558;1300;22770;-27
2022/04/17 08:36:50;;;;;;;3.60;2.70;;;;;;;10.38;51.33;100649.41;103606;1300;24296;-30
2022/04/17 08:39:19;;;;;;;4.30;1.70;;;;;;;9.99;48.69;100650.06;103560;1300;24278;-26
2022/04/17 08:41:49;;;;;;;3.90;2.10;;;;;;;10.37;47.90;100647.01;103547;1300;22502;-29
2022/04/17 08:44:18;;;;;;;3.40;2.50;;;;;;;9.82;48.60;100652.55;103519;1300;24222;-28
2022/04/17 08:46:47;;;;;;;4.30;2.40;;;;;;;10.47;48.91;100650.73;103563;1300;23801;-30
2022/04/17 08:49:17;;;;;;;3.40;2.40;;;;;;;10.56;47.34;100644.81;103537;1300;24309;-28
2022/04/17 08:51:48;;;;;;;4.30;2.60;;;;;;;10.63;47.29;100643.70;103443;1301;22505;-26
2022/04/17 08:54:17;;;;;;;1.70;0.80;;;;;;;10.02;47.13;100640.55;103478;1300;24025;-29
2022/04/17 08:56:46;;;;;;;6.60;2.60;;;;;;;9.60;47.92;100639.27;103597;1300;23600;-25
2022/04/17 08:59:15;;;;;;;5.00;2.40;;;;;;;10.10;48.25;100636.85;103602;1300;24305;-28
2022/04/17 09:01:44;;;;;;;4.20;2.00;;;;;;;10.70;47.52;100630.95;103592;1300;22637;-29
2022/04/17 09:04:13;;;;;;;3.00;1.70;;;;;;;11.19;46.21;100630.56;103515;1300;23751;-25
2022/04/17 09:06:42;;;;;;;1.90;1.40;;;;;;;11.33;45.27;100630.45;103526;1300;24245;-29
2022/04/17 09:09:11;;;;;;;6.00;1.40;;;;;;;10.50;44.45;100630.39;103572;1300;22755;-29
2022/04/17 09:11:40;;;;;;;2.80;1.50;;;;;;;10.37;44.85;100621.20;103569;1300;24980;-30
2022/04/17 09:14:08;;;;;;;2.50;1.50;;;;;;;9.90;46.12;100625.95;103542;1300;25015;-29
2022/04/17 09:16:38;;;;;;;2.60;1.40;;;;;;;10.19;45.13;100619.74;103623;1300;25000;-28
2022/04/17 09:19:13;;;;;;;7.20;1.70;;;;;;;9.95;43.86;100615.40;103566;1300;22938;-26
2022/04/17 09:21:43;;;;;;;2.90;1.60;;;;;;;10.59;45.71;100609.70;103523;1300;23610;-28
2022/04/17 09:24:14;;;;;;;3.10;1.20;;;;;;;11.05;43.79;100612.23;103588;1300;22634;-30
2022/04/17 09:26:48;;;;;;;3.30;1.70;;;;;;;11.03;42.67;100613.01;103613;1300;25226;-27
2022/04/17 09:29:18;;;;;;;1.40;0.80;;;;;;;11.16;40.50;100610.48;103645;1300;25092;-28
2022/04/17 09:31:48;;;;;;;1.50;1.10;;;;;;;10.88;39.80;100611.73;103618;1300;22773;-28
2022/04/17 09:34:17;;;;;;;1.90;0.90;;;;;;;10.64;41.43;100606.30;103634;1300;24996;-30
2022/04/17 09:36:45;;;;;;;1.40;1.00;;;;;;;10.22;41.08;100607.43;103632;1300;24224;-28
2022/04/17 09:39:16;;;;;;;1.80;0.90;;;;;;;10.43;41.51;100605.52;103583;1300;24213;-28
2022/04/17 09:41:52;;;;;;;2.00;0.80;;;;;;;10.57;41.83;100603.52;103436;1300;22522;-25
2022/04/17 09:44:46;;;;;;;2.50;0.80;;;;;;;11.38;41.87;100600.30;103534;1300;25029;-28
2022/04/17 09:47:17;;;;;;;3.30;1.20;;;;;;;11.76;41.62;100596.21;103556;1300;24285;-29
2022/04/17 09:49:51;;;;;;;3.80;1.40;;;;;;;11.98;41.04;100591.35;103571;1300;22512;-28
2022/04/17 09:52:20;;;;;;;2.40;1.70;;;;;;;11.54;40.70;100591.80;103585;1299;25030;-28
2022/04/17 09:54:49;;;;;;;2.40;1.50;;;;;;;10.83;40.64;100594.73;103594;1300;23602;-28
2022/04/17 09:57:20;;;;;;;4.00;1.70;;;;;;;10.44;40.57;100593.25;103546;1300;22516;-25
2022/04/17 09:59:49;;;;;;;2.90;1.10;;;;;;;10.74;41.25;100586.48;103598;1300;22653;-24
2022/04/17 10:02:18;;;;;;;3.30;1.30;;;;;;;11.56;41.15;100581.94;103560;1300;24378;-25
2022/04/17 10:04:47;;;;;;;2.80;1.30;;;;;;;12.29;39.62;100575.98;103602;1300;23926;-24
2022/04/17 10:07:18;;;;;;;4.40;1.60;;;;;;;12.09;39.01;100567.49;103580;1300;23923;-23
2022/04/17 10:09:47;;;;;;;1.80;0.90;;;;;;;11.78;38.79;100570.07;103547;1300;25323;-28
2022/04/17 10:12:19;;;;;;;2.80;1.10;;;;;;;11.96;39.10;100567.70;103493;1300;24293;-26
2022/04/17 10:14:49;;;;;;;4.00;1.60;;;;;;;11.67;38.90;100568.31;103516;1300;24368;-26
2022/04/17 10:17:20;;;;;;;2.90;1.40;;;;;;;12.07;38.45;100562.08;103597;1300;24971;-25
2022/04/17 10:19:49;;;;;;;3.40;1.30;;;;;;;12.48;39.04;100562.06;103605;1300;26190;-28
2022/04/17 10:22:20;;;;;;;4.00;1.20;;;;;;;12.23;36.59;100557.59;103546;1300;25256;-28
2022/04/17 10:24:51;;;;;;;3.00;1.30;;;;;;;12.13;36.85;100556.78;103581;1300;23614;-25
2022/04/17 10:27:24;;;;;;;3.60;1.90;;;;;;;12.61;36.57;100549.12;103582;1300;26180;-29
2022/04/17 10:29:55;;;;;;;3.40;1.20;;;;;;;12.83;36.29;100544.09;103580;1300;22770;-28
2022/04/17 10:32:36;;;;;;;1.60;1.20;;;;;;;13.24;36.37;100537.66;103614;1300;24021;-25
2022/04/17 10:35:14;;;;;;;2.40;1.20;;;;;;;13.61;36.17;100537.41;103583;1300;22512;-29
2022/04/17 10:37:54;;;;;;;2.40;1.20;;;;;;;12.84;34.78;100535.80;103539;1300;25122;-25
2022/04/17 10:40:23;;;;;;;3.10;1.50;;;;;;;12.46;35.00;100537.06;103515;1300;24218;-28
2022/04/17 10:42:55;;;;;;;3.80;1.70;;;;;;;12.30;35.54;100531.46;103535;1300;25016;-25
2022/04/17 10:45:25;;;;;;;2.90;1.60;;;;;;;11.83;35.92;100524.31;103570;1300;24228;-28
2022/04/17 10:48:02;;;;;;;1.90;1.20;;;;;;;12.46;35.46;100517.20;103510;1300;22501;-25
2022/04/17 10:50:38;;;;;;;2.70;1.30;;;;;;;13.01;35.36;100514.44;103580;1300;23751;-25
2022/04/17 10:53:14;;;;;;;2.70;1.60;;;;;;;13.30;33.49;100502.78;103551;1300;23863;-28
2022/04/17 10:56:03;;;;;;;3.00;2.20;;;;;;;13.42;33.37;100500.92;103523;1301;23793;-25
2022/04/17 10:58:40;;;;;;;1.90;0.90;;;;;;;13.00;32.11;100498.42;103519;1300;24214;-28
2022/04/17 11:01:10;;;;;;;2.60;1.10;;;;;;;13.50;31.82;100498.16;103537;1300;24289;-28
2022/04/17 11:03:48;;;;;;;2.30;1.40;;;;;;;13.70;32.00;100495.88;103456;1301;23587;-24
2022/04/17 11:06:24;;;;;;;4.40;1.20;;;;;;;13.88;31.51;100492.41;103545;1300;24288;-24
2022/04/17 11:08:57;;;;;;;3.10;1.20;;;;;;;14.20;32.60;100488.88;103506;1299;23822;-25
2022/04/17 11:11:33;;;;;;;3.70;1.50;;;;;;;14.68;30.98;100486.91;103583;1300;24196;-25
2022/04/17 11:14:06;;;;;;;2.80;1.80;;;;;;;14.29;30.15;100490.15;103512;1301;24204;-28
2022/04/17 11:16:39;;;;;;;3.00;1.90;;;;;;;14.11;31.06;100490.83;103571;1300;25089;-29
2022/04/17 11:19:11;;;;;;;2.00;1.00;;;;;;;14.41;31.17;100493.06;103548;1300;25220;-25
2022/04/17 11:21:43;;;;;;;2.10;1.40;;;;;;;13.38;30.38;100491.67;103495;1300;24439;-23
2022/04/17 11:24:12;;;;;;;2.30;1.10;;;;;;;13.23;32.06;100486.72;103592;1300;23250;-30
2022/04/17 11:27:04;;;;;;;4.40;1.40;;;;;;;12.55;32.66;100489.33;103537;1300;24996;-29
2022/04/17 11:29:34;;;;;;;1.70;0.90;;;;;;;12.45;32.96;100485.42;103515;1300;23872;-25
2022/04/17 11:32:25;;;;;;;2.60;1.30;;;;;;;12.87;31.81;100484.00;103560;1300;24012;-28
2022/04/17 11:34:56;;;;;;;2.20;1.20;;;;;;;13.08;31.64;100479.13;103575;1300;24251;-24
2022/04/17 11:37:26;;;;;;;2.00;1.20;;;;;;;13.59;31.59;100468.09;103572;1300;23046;-28
2022/04/17 11:39:57;;;;;;;2.70;1.60;;;;;;;13.46;31.56;100468.99;103578;1300;23215;-24
2022/04/17 11:42:28;;;;;;;1.30;1.10;;;;;;;13.82;31.60;100469.05;103552;1300;23930;-28